Time;durP1;ratioP1;P1;durP2;ratioP2;P2;SDS_P1;SDS_P2;PMS_P1;PMS_P2;Temp;Humidity;BMP_temperature;BMP_pressure;BME280_temperature;BME280_humidity;BME280_pressure;Samples;Min_cycle;Max_cycle;Signal;HPM_P1;HPM_P2
2021/08/07 00:02:16;;;;;;;;;;;23.10;72.70;;;;;;5187078;28;19929;-83
2021/08/07 00:04:48;;;;;;;;;;;23.10;72.70;;;;;;5187586;28;19925;-83
2021/08/07 00:07:20;;;;;;;;;;;23.10;72.70;;;;;;5185805;28;19925;-82
2021/08/07 00:09:55;;;;;;;;;;;23.10;72.70;;;;;;5187986;28;20223;-83
2021/08/07 00:12:29;;;;;;;;;;;23.10;72.70;;;;;;5189527;28;19933;-83
2021/08/07 00:15:01;;;;;;;;;;;23.10;72.70;;;;;;5187408;28;19930;-83
2021/08/07 00:17:34;;;;;;;;;;;23.10;72.70;;;;;;5185697;28;19941;-82
2021/08/07 00:20:07;;;;;;;;;;;23.10;73.30;;;;;;5186311;28;19976;-83
2021/08/07 00:22:39;;;;;;;;;;;23.10;72.70;;;;;;5188565;28;20319;-82
2021/08/07 00:25:12;;;;;;;;;;;23.10;72.70;;;;;;5187786;28;19929;-83
2021/08/07 00:27:44;;;;;;;;;;;23.10;72.70;;;;;;5190259;28;19929;-82
2021/08/07 00:30:17;;;;;;;;;;;23.10;72.70;;;;;;5187580;28;19936;-82
2021/08/07 00:32:52;;;;;;;;;;;23.10;72.70;;;;;;5186606;28;20401;-83
2021/08/07 00:35:25;;;;;;;;;;;23.10;72.70;;;;;;5201695;28;19929;-82
2021/08/07 00:37:59;;;;;;;;;;;23.10;72.70;;;;;;5172906;28;19929;-82
2021/08/07 00:40:32;;;;;;;;;;;23.10;72.70;;;;;;5172801;28;20426;-83
2021/08/07 00:43:08;;;;;;;;;;;23.10;72.70;;;;;;5186125;28;19926;-83
2021/08/07 00:45:43;;;;;;;;;;;23.10;72.70;;;;;;5155287;28;19933;-82
2021/08/07 00:48:23;;;;;;;;;;;23.10;72.70;;;;;;5185518;28;19934;-82
2021/08/07 00:50:59;;;;;;;;;;;23.10;72.70;;;;;;5192242;28;19937;-82
2021/08/07 00:53:32;;;;;;;;;;;23.10;72.70;;;;;;5203504;28;20317;-83
2021/08/07 00:56:10;;;;;;;;;;;23.10;72.70;;;;;;5171609;28;19933;-82
2021/08/07 00:58:52;;;;;;;;;;;23.10;72.70;;;;;;5180096;28;20409;-83
2021/08/07 01:01:32;;;;;;;;;;;23.10;72.70;;;;;;5200994;28;19930;-83
2021/08/07 01:04:09;;;;;;;;;;;23.10;72.70;;;;;;5172408;28;19933;-83
2021/08/07 01:07:15;;;;;;;;;;;23.10;72.70;;;;;;5188614;28;19937;-83
2021/08/07 01:09:53;;;;;;;;;;;23.10;72.70;;;;;;5137037;28;19929;-84
2021/08/07 01:12:47;;;;;;;;;;;23.10;72.70;;;;;;5174883;28;19933;-83
2021/08/07 01:15:25;;;;;;;;;;;23.10;72.70;;;;;;5184617;28;19940;-82
2021/08/07 01:18:02;;;;;;;;;;;23.10;72.70;;;;;;5171370;28;19929;-84
2021/08/07 01:20:35;;;;;;;;;;;23.10;72.70;;;;;;5207102;28;20306;-84
2021/08/07 01:23:22;;;;;;;;;;;23.10;72.70;;;;;;5189756;28;19929;-82
2021/08/07 01:26:18;;;;;;;;;;;23.10;72.70;;;;;;5176009;28;19929;-83
2021/08/07 01:29:00;;;;;;;;;;;23.00;72.60;;;;;;5173633;28;20291;-83
2021/08/07 01:31:32;;;;;;;;;;;23.10;72.70;;;;;;5191502;28;19925;-83
2021/08/07 01:34:11;;;;;;;;;;;23.10;72.70;;;;;;5207786;28;19929;-83
2021/08/07 01:36:48;;;;;;;;;;;23.00;72.70;;;;;;5195977;28;19925;-83
2021/08/07 01:39:41;;;;;;;;;;;23.10;72.70;;;;;;5193139;28;19926;-83
2021/08/07 01:42:15;;;;;;;;;;;23.00;72.60;;;;;;5162703;28;19929;-83
2021/08/07 01:44:48;;;;;;;;;;;23.10;72.70;;;;;;5155456;28;19933;-83
2021/08/07 01:47:27;;;;;;;;;;;23.10;72.70;;;;;;5185677;28;19925;-83
2021/08/07 01:50:09;;;;;;;;;;;23.10;72.70;;;;;;5188228;28;19925;-84
2021/08/07 01:52:45;;;;;;;;;;;23.10;72.60;;;;;;5172743;28;19930;-84
2021/08/07 01:55:24;;;;;;;;;;;23.10;73.30;;;;;;5205301;28;19936;-82
2021/08/07 01:58:02;;;;;;;;;;;23.10;72.70;;;;;;5165989;28;19936;-83
2021/08/07 02:00:38;;;;;;;;;;;23.10;72.70;;;;;;5167126;28;20410;-83
2021/08/07 02:03:12;;;;;;;;;;;23.00;72.60;;;;;;5161956;28;19936;-83
2021/08/07 02:05:45;;;;;;;;;;;23.00;72.60;;;;;;5205426;28;19926;-82
2021/08/07 02:08:18;;;;;;;;;;;23.00;72.70;;;;;;5170214;28;19929;-82
2021/08/07 02:10:59;;;;;;;;;;;23.00;72.60;;;;;;5194233;28;19925;-83
2021/08/07 02:13:32;;;;;;;;;;;23.00;72.60;;;;;;5190695;28;19953;-82
2021/08/07 02:16:15;;;;;;;;;;;23.00;72.60;;;;;;5158486;28;20339;-83
2021/08/07 02:18:48;;;;;;;;;;;23.10;72.70;;;;;;5204779;28;19926;-83
2021/08/07 02:21:23;;;;;;;;;;;23.10;72.70;;;;;;5159649;28;20283;-83
2021/08/07 02:23:56;;;;;;;;;;;23.00;72.60;;;;;;5190726;28;19948;-82
2021/08/07 02:26:30;;;;;;;;;;;23.10;72.70;;;;;;5173254;28;20379;-82
2021/08/07 02:29:08;;;;;;;;;;;23.10;72.70;;;;;;5204179;28;19925;-83
2021/08/07 02:31:51;;;;;;;;;;;23.00;72.60;;;;;;5187666;28;19937;-82
2021/08/07 02:34:25;;;;;;;;;;;23.00;72.60;;;;;;5175079;28;19933;-82
2021/08/07 02:36:57;;;;;;;;;;;23.00;72.60;;;;;;5174974;28;19933;-85
2021/08/07 02:39:36;;;;;;;;;;;23.00;72.60;;;;;;5189802;28;19937;-83
2021/08/07 02:42:10;;;;;;;;;;;23.00;72.60;;;;;;5191433;28;19936;-83
2021/08/07 02:44:47;;;;;;;;;;;23.00;72.60;;;;;;5178410;28;19937;-83
2021/08/07 02:47:25;;;;;;;;;;;23.00;72.60;;;;;;5187749;28;19929;-83
2021/08/07 02:50:03;;;;;;;;;;;23.00;72.60;;;;;;5173466;28;20315;-82
2021/08/07 02:52:37;;;;;;;;;;;23.00;72.60;;;;;;5189932;28;20310;-82
2021/08/07 02:55:14;;;;;;;;;;;23.00;72.60;;;;;;5189228;28;20406;-83
2021/08/07 02:57:50;;;;;;;;;;;23.00;72.60;;;;;;5170439;28;19933;-83
2021/08/07 03:00:23;;;;;;;;;;;23.00;72.60;;;;;;5155834;28;20414;-83
2021/08/07 03:02:56;;;;;;;;;;;23.00;72.60;;;;;;5184518;28;19944;-82
2021/08/07 03:05:28;;;;;;;;;;;23.00;72.50;;;;;;5202613;28;19929;-82
2021/08/07 03:08:05;;;;;;;;;;;23.00;72.60;;;;;;5201002;28;20437;-83
2021/08/07 03:10:42;;;;;;;;;;;23.00;72.60;;;;;;5174601;28;19936;-83
2021/08/07 03:13:19;;;;;;;;;;;23.00;72.60;;;;;;5185944;28;19929;-83
2021/08/07 03:15:52;;;;;;;;;;;23.00;72.50;;;;;;5173866;28;19951;-83
2021/08/07 03:18:29;;;;;;;;;;;23.00;72.50;;;;;;5173207;28;19929;-83
2021/08/07 03:21:03;;;;;;;;;;;23.00;72.50;;;;;;5175157;28;19932;-83
2021/08/07 03:23:44;;;;;;;;;;;23.00;72.50;;;;;;5186935;28;20391;-83
2021/08/07 03:26:16;;;;;;;;;;;23.00;72.50;;;;;;5170239;28;20349;-83
2021/08/07 03:28:50;;;;;;;;;;;23.00;72.60;;;;;;5202553;28;20268;-83
2021/08/07 03:31:26;;;;;;;;;;;23.00;72.50;;;;;;5188547;28;19940;-83
2021/08/07 03:33:59;;;;;;;;;;;23.00;73.20;;;;;;5160695;28;20383;-83
2021/08/07 03:36:33;;;;;;;;;;;23.00;72.50;;;;;;5162115;28;19940;-82
2021/08/07 03:39:07;;;;;;;;;;;23.00;72.60;;;;;;5174148;28;19940;-83
2021/08/07 03:41:42;;;;;;;;;;;23.00;72.60;;;;;;5157809;28;19925;-83
2021/08/07 03:44:16;;;;;;;;;;;23.00;72.50;;;;;;5173354;28;19929;-83
2021/08/07 03:46:50;;;;;;;;;;;23.00;72.60;;;;;;5159340;28;19936;-84
2021/08/07 03:49:22;;;;;;;;;;;23.00;72.50;;;;;;5205747;28;19956;-82
2021/08/07 03:51:55;;;;;;;;;;;23.00;72.50;;;;;;5190258;28;20299;-82
2021/08/07 03:54:28;;;;;;;;;;;23.00;72.50;;;;;;5172336;28;19925;-83
2021/08/07 03:57:03;;;;;;;;;;;23.00;72.50;;;;;;5189564;28;19929;-83
2021/08/07 03:59:37;;;;;;;;;;;23.00;72.50;;;;;;5187445;28;20300;-83
2021/08/07 04:02:10;;;;;;;;;;;23.00;72.50;;;;;;5170883;28;19936;-83
2021/08/07 04:04:42;;;;;;;;;;;23.00;72.50;;;;;;5191463;28;19945;-83
2021/08/07 04:07:15;;;;;;;;;;;23.00;72.50;;;;;;5190824;28;19929;-83
2021/08/07 04:09:52;;;;;;;;;;;23.00;72.50;;;;;;5157991;28;19925;-83
2021/08/07 04:12:25;;;;;;;;;;;23.00;72.50;;;;;;5187353;28;19929;-83
2021/08/07 04:15:00;;;;;;;;;;;23.00;72.50;;;;;;5186805;28;19936;-83
2021/08/07 04:17:34;;;;;;;;;;;23.00;72.50;;;;;;5189558;28;20307;-82
2021/08/07 04:20:08;;;;;;;;;;;23.00;72.50;;;;;;5205649;28;19929;-83
2021/08/07 04:22:41;;;;;;;;;;;23.00;72.50;;;;;;5205587;28;19932;-82
2021/08/07 04:25:14;;;;;;;;;;;23.00;72.50;;;;;;5188512;28;19929;-83
2021/08/07 04:27:47;;;;;;;;;;;23.00;72.50;;;;;;5158221;28;19926;-83
2021/08/07 04:30:20;;;;;;;;;;;23.00;72.50;;;;;;5158995;28;20297;-83
2021/08/07 04:32:55;;;;;;;;;;;23.00;72.50;;;;;;5171826;28;19925;-83
2021/08/07 04:35:29;;;;;;;;;;;23.00;72.50;;;;;;5185899;28;19929;-86
2021/08/07 04:38:02;;;;;;;;;;;23.00;72.50;;;;;;5192814;28;19930;-85
2021/08/07 04:40:39;;;;;;;;;;;23.00;72.60;;;;;;5161326;28;19925;-85
2021/08/07 04:43:22;;;;;;;;;;;23.00;72.60;;;;;;5159272;28;19933;-85
2021/08/07 04:45:55;;;;;;;;;;;23.00;72.50;;;;;;5221363;28;19933;-85
2021/08/07 04:48:29;;;;;;;;;;;23.00;72.50;;;;;;5173230;28;19940;-86
2021/08/07 04:51:06;;;;;;;;;;;23.00;72.50;;;;;;5188768;28;19933;-86
2021/08/07 04:53:42;;;;;;;;;;;23.00;72.50;;;;;;5150431;28;19929;-86
2021/08/07 04:56:21;;;;;;;;;;;23.00;72.50;;;;;;5154393;28;19930;-86
2021/08/07 04:58:54;;;;;;;;;;;23.00;72.50;;;;;;5174682;28;19936;-85
2021/08/07 05:01:33;;;;;;;;;;;23.00;72.50;;;;;;5160370;28;19932;-82
2021/08/07 05:04:06;;;;;;;;;;;23.00;72.50;;;;;;5191704;28;19925;-82
2021/08/07 05:06:39;;;;;;;;;;;23.00;72.50;;;;;;5206028;28;19929;-82
2021/08/07 05:09:12;;;;;;;;;;;23.00;72.60;;;;;;5190126;28;19929;-85
2021/08/07 05:12:01;;;;;;;;;;;23.00;72.50;;;;;;5180064;28;19926;-83
2021/08/07 05:14:34;;;;;;;;;;;23.00;72.50;;;;;;5175448;28;19957;-83
2021/08/07 05:17:07;;;;;;;;;;;23.00;72.50;;;;;;5159566;28;19926;-82
2021/08/07 05:19:40;;;;;;;;;;;23.00;72.50;;;;;;5191629;28;20370;-83
2021/08/07 05:22:14;;;;;;;;;;;23.00;72.50;;;;;;5175400;28;20394;-84
2021/08/07 05:24:51;;;;;;;;;;;23.00;72.50;;;;;;5193062;28;19945;-83
2021/08/07 05:27:24;;;;;;;;;;;23.00;72.50;;;;;;5176107;28;19926;-83
2021/08/07 05:29:57;;;;;;;;;;;23.00;72.40;;;;;;5191196;28;20379;-82
2021/08/07 05:32:29;;;;;;;;;;;23.00;72.40;;;;;;5176851;28;20408;-82
2021/08/07 05:35:04;;;;;;;;;;;23.00;72.40;;;;;;5189082;28;20525;-85
2021/08/07 05:37:38;;;;;;;;;;;23.00;72.40;;;;;;5186728;28;19929;-85
2021/08/07 05:40:13;;;;;;;;;;;23.00;72.50;;;;;;5172605;28;20096;-84
2021/08/07 05:42:49;;;;;;;;;;;23.00;72.40;;;;;;5191205;28;20410;-84
2021/08/07 05:45:22;;;;;;;;;;;23.00;72.40;;;;;;5183575;28;20840;-84
2021/08/07 05:47:54;;;;;;;;;;;23.00;72.40;;;;;;4825525;28;9999995;-85
2021/08/07 05:50:27;;;;;;;;;;;23.00;72.40;;;;;;5185317;28;19925;-85
2021/08/07 05:53:00;;;;;;;;;;;23.00;72.40;;;;;;5173368;28;19936;-85
2021/08/07 05:55:35;;;;;;;;;;;23.00;72.40;;;;;;5169881;28;19929;-85
2021/08/07 05:58:08;;;;;;;;;;;23.00;72.40;;;;;;5152079;28;19925;-84
2021/08/07 06:00:44;;;;;;;;;;;23.00;72.40;;;;;;5169611;28;19929;-85
2021/08/07 06:03:17;;;;;;;;;;;23.00;72.40;;;;;;5182604;28;20285;-84
2021/08/07 06:05:54;;;;;;;;;;;23.00;72.30;;;;;;5170180;28;20275;-85
2021/08/07 06:08:28;;;;;;;;;;;23.00;72.30;;;;;;5190457;28;19925;-84
2021/08/07 06:11:01;;;;;;;;;;;23.00;72.30;;;;;;5157209;28;19937;-83
2021/08/07 06:13:33;;;;;;;;;;;23.00;72.20;;;;;;5167237;28;19930;-85
2021/08/07 06:16:06;;;;;;;;;;;23.00;72.30;;;;;;5149220;28;19929;-84
2021/08/07 06:18:39;;;;;;;;;;;23.00;72.30;;;;;;5183305;28;19940;-84
2021/08/07 06:21:12;;;;;;;;;;;23.00;72.20;;;;;;5167326;28;19936;-85
2021/08/07 06:23:44;;;;;;;;;;;23.00;72.20;;;;;;5164490;28;20290;-84
2021/08/07 06:26:17;;;;;;;;;;;23.00;72.20;;;;;;5166740;28;19929;-85
2021/08/07 06:28:50;;;;;;;;;;;23.00;72.20;;;;;;5170344;28;19929;-84
2021/08/07 06:31:22;;;;;;;;;;;23.10;72.30;;;;;;5184104;28;19933;-83
2021/08/07 06:33:55;;;;;;;;;;;23.10;72.30;;;;;;5164558;28;20418;-85
2021/08/07 06:36:27;;;;;;;;;;;23.00;72.20;;;;;;5180177;28;19928;-84
2021/08/07 06:39:00;;;;;;;;;;;23.00;72.20;;;;;;5198022;28;20450;-84
2021/08/07 06:41:33;;;;;;;;;;;23.10;72.30;;;;;;5151255;28;20013;-85
2021/08/07 06:44:14;;;;;;;;;;;23.10;72.30;;;;;;5182033;28;19937;-85
2021/08/07 06:46:46;;;;;;;;;;;23.10;72.30;;;;;;5167545;28;19929;-84
2021/08/07 06:49:19;;;;;;;;;;;23.10;72.30;;;;;;5181028;28;19941;-84
2021/08/07 06:51:52;;;;;;;;;;;23.10;72.30;;;;;;5196855;28;19952;-85
2021/08/07 06:54:26;;;;;;;;;;;23.00;72.20;;;;;;5180235;28;20284;-85
2021/08/07 06:56:59;;;;;;;;;;;23.10;72.30;;;;;;5194457;28;19941;-86
2021/08/07 06:59:32;;;;;;;;;;;23.10;72.30;;;;;;5167713;28;19933;-84
2021/08/07 07:02:05;;;;;;;;;;;23.10;72.30;;;;;;5178114;28;20375;-85
2021/08/07 07:04:38;;;;;;;;;;;23.10;72.30;;;;;;5200351;28;19930;-86
2021/08/07 07:07:11;;;;;;;;;;;23.00;72.20;;;;;;5183300;28;19936;-84
2021/08/07 07:09:45;;;;;;;;;;;23.00;72.20;;;;;;5169104;28;19956;-85
2021/08/07 07:12:18;;;;;;;;;;;23.10;72.30;;;;;;5166343;28;19932;-85
2021/08/07 07:14:52;;;;;;;;;;;23.10;72.30;;;;;;5170386;28;19929;-83
2021/08/07 07:17:28;;;;;;;;;;;23.10;72.30;;;;;;5151246;28;20383;-86
2021/08/07 07:20:02;;;;;;;;;;;23.10;72.30;;;;;;5181604;28;19940;-85
2021/08/07 07:22:36;;;;;;;;;;;23.10;72.30;;;;;;5181770;28;19936;-85
2021/08/07 07:25:10;;;;;;;;;;;23.10;72.40;;;;;;5166226;28;20319;-85
2021/08/07 07:27:43;;;;;;;;;;;23.10;72.40;;;;;;5181748;28;19929;-84
2021/08/07 07:30:17;;;;;;;;;;;23.10;72.40;;;;;;5166702;28;20329;-85
2021/08/07 07:32:50;;;;;;;;;;;23.10;72.40;;;;;;5201209;28;19979;-86
2021/08/07 07:35:23;;;;;;;;;;;23.10;72.40;;;;;;5197838;28;19933;-87
2021/08/07 07:37:55;;;;;;;;;;;23.10;72.40;;;;;;5169016;28;19953;-85
2021/08/07 07:40:28;;;;;;;;;;;23.10;72.40;;;;;;5197647;28;20309;-85
2021/08/07 07:43:00;;;;;;;;;;;23.10;72.40;;;;;;5154002;28;19933;-85
2021/08/07 07:45:33;;;;;;;;;;;23.10;72.40;;;;;;5164491;28;19936;-85
2021/08/07 07:48:08;;;;;;;;;;;23.10;72.40;;;;;;5162288;28;19929;-85
2021/08/07 07:50:41;;;;;;;;;;;23.20;72.50;;;;;;5179124;28;19926;-88
2021/08/07 07:53:13;;;;;;;;;;;23.10;72.50;;;;;;5168705;28;19925;-86
2021/08/07 07:55:46;;;;;;;;;;;23.10;72.40;;;;;;5168079;28;20294;-86
2021/08/07 07:58:18;;;;;;;;;;;23.20;72.50;;;;;;5185660;28;19936;-86
2021/08/07 08:00:52;;;;;;;;;;;23.10;72.50;;;;;;5187393;28;19933;-84
2021/08/07 08:03:25;;;;;;;;;;;23.10;72.50;;;;;;5172046;28;19929;-85
2021/08/07 08:05:58;;;;;;;;;;;23.20;72.50;;;;;;5172210;28;19929;-84
2021/08/07 08:08:30;;;;;;;;;;;23.10;72.40;;;;;;5182422;28;19933;-85
2021/08/07 08:11:02;;;;;;;;;;;23.20;72.60;;;;;;5180806;28;19930;-85
2021/08/07 08:13:35;;;;;;;;;;;23.10;72.30;;;;;;5180329;28;19928;-85
2021/08/07 08:16:07;;;;;;;;;;;23.10;72.30;;;;;;5181556;28;20294;-87
2021/08/07 08:18:41;;;;;;;;;;;23.20;72.30;;;;;;5159746;28;19929;-86
2021/08/07 08:21:13;;;;;;;;;;;23.20;72.30;;;;;;5180758;28;19933;-85
2021/08/07 08:23:46;;;;;;;;;;;23.10;72.20;;;;;;5198184;28;20274;-83
2021/08/07 08:26:19;;;;;;;;;;;23.10;72.30;;;;;;5144842;28;19933;-85
2021/08/07 08:28:52;;;;;;;;;;;23.10;72.20;;;;;;5193518;28;19925;-85
2021/08/07 08:31:24;;;;;;;;;;;23.20;72.30;;;;;;5168323;28;19926;-86
2021/08/07 08:33:57;;;;;;;;;;;23.20;72.20;;;;;;5182817;28;19930;-85
2021/08/07 08:36:31;;;;;;;;;;;23.20;72.20;;;;;;5183890;28;19933;-84
2021/08/07 08:39:03;;;;;;;;;;;23.20;72.20;;;;;;5201716;28;19936;-86
2021/08/07 08:41:36;;;;;;;;;;;23.20;72.20;;;;;;5170473;28;19930;-87
2021/08/07 08:44:09;;;;;;;;;;;23.20;72.20;;;;;;5182480;28;20409;-84
2021/08/07 08:46:42;;;;;;;;;;;23.20;72.20;;;;;;5187710;28;19933;-84
2021/08/07 08:49:15;;;;;;;;;;;23.20;72.20;;;;;;5178952;28;19926;-84
2021/08/07 08:51:48;;;;;;;;;;;23.20;72.20;;;;;;5167673;28;19925;-84
2021/08/07 08:54:21;;;;;;;;;;;23.20;72.10;;;;;;5194254;28;20324;-83
2021/08/07 08:56:54;;;;;;;;;;;23.20;72.00;;;;;;5166258;28;19936;-84
2021/08/07 08:59:27;;;;;;;;;;;23.20;72.00;;;;;;5170243;28;20333;-84
2021/08/07 09:02:00;;;;;;;;;;;23.20;72.00;;;;;;5190639;28;19940;-84
2021/08/07 09:04:34;;;;;;;;;;;23.20;72.00;;;;;;5197712;28;19925;-84
2021/08/07 09:07:06;;;;;;;;;;;23.20;71.90;;;;;;5166719;28;20009;-83
2021/08/07 09:09:41;;;;;;;;;;;23.20;71.90;;;;;;5149731;28;19925;-84
2021/08/07 09:12:19;;;;;;;;;;;23.30;71.90;;;;;;5196824;28;19926;-84
2021/08/07 09:14:53;;;;;;;;;;;23.20;71.80;;;;;;5168595;28;20318;-85
2021/08/07 09:17:25;;;;;;;;;;;23.30;71.80;;;;;;5188071;28;19933;-84
2021/08/07 09:20:02;;;;;;;;;;;23.30;71.80;;;;;;5182256;28;19929;-84
2021/08/07 09:22:35;;;;;;;;;;;23.30;71.70;;;;;;5162704;28;19944;-84
2021/08/07 09:25:09;;;;;;;;;;;23.30;71.70;;;;;;5182566;28;19933;-84
2021/08/07 09:27:44;;;;;;;;;;;23.30;71.60;;;;;;5187246;28;19941;-84
2021/08/07 09:30:17;;;;;;;;;;;23.30;71.50;;;;;;5185476;28;19940;-84
2021/08/07 09:32:58;;;;;;;;;;;23.30;71.50;;;;;;5159899;28;19925;-86
2021/08/07 09:35:37;;;;;;;;;;;23.30;71.50;;;;;;5151521;28;19930;-85
2021/08/07 09:38:20;;;;;;;;;;;23.30;71.60;;;;;;5180331;28;19929;-85
2021/08/07 09:41:01;;;;;;;;;;;23.30;71.70;;;;;;5188573;28;19936;-84
2021/08/07 09:43:49;;;;;;;;;;;23.30;71.70;;;;;;5186943;28;19932;-84
2021/08/07 09:46:24;;;;;;;;;;;23.30;71.70;;;;;;5172191;28;19932;-85
2021/08/07 09:49:06;;;;;;;;;;;23.30;71.80;;;;;;5168056;28;19926;-86
2021/08/07 09:51:39;;;;;;;;;;;23.30;71.80;;;;;;4858127;28;10000223;-84
2021/08/07 09:54:16;;;;;;;;;;;23.30;71.90;;;;;;5162066;28;20395;-84
2021/08/07 09:56:56;;;;;;;;;;;23.30;71.90;;;;;;5152081;28;20184;-85
2021/08/07 09:59:43;;;;;;;;;;;23.30;72.00;;;;;;5197652;28;19936;-85
2021/08/07 10:02:18;;;;;;;;;;;23.30;72.10;;;;;;5176236;28;20386;-88
2021/08/07 10:04:52;;;;;;;;;;;23.30;72.10;;;;;;5179169;28;20390;-84
2021/08/07 10:07:25;;;;;;;;;;;23.40;72.20;;;;;;5185317;28;20413;-84
2021/08/07 10:10:30;;;;;;;;;;;23.30;72.10;;;;;;5169575;28;19925;-83
2021/08/07 10:13:07;;;;;;;;;;;23.30;72.00;;;;;;5166302;28;19936;-85
2021/08/07 10:15:48;;;;;;;;;;;23.30;72.10;;;;;;5163836;28;19944;-86
2021/08/07 10:18:20;;;;;;;;;;;23.30;72.10;;;;;;5198614;28;19941;-84
2021/08/07 10:20:53;;;;;;;;;;;23.30;72.10;;;;;;5144477;28;20405;-85
2021/08/07 10:23:27;;;;;;;;;;;23.40;72.20;;;;;;5171459;28;19929;-84
2021/08/07 10:26:00;;;;;;;;;;;23.30;72.20;;;;;;5196416;28;20509;-85
2021/08/07 10:28:37;;;;;;;;;;;23.30;72.30;;;;;;5183634;28;19925;-86
2021/08/07 10:31:12;;;;;;;;;;;23.40;72.40;;;;;;5181159;28;19936;-85
2021/08/07 10:33:46;;;;;;;;;;;23.30;72.30;;;;;;5179547;28;20610;-85
2021/08/07 10:36:19;;;;;;;;;;;23.30;72.40;;;;;;5183585;28;19925;-85
2021/08/07 10:38:51;;;;;;;;;;;23.40;72.30;;;;;;5199989;28;19934;-85
2021/08/07 10:41:28;;;;;;;;;;;23.40;72.30;;;;;;5188983;28;19941;-84
2021/08/07 10:44:03;;;;;;;;;;;23.40;72.40;;;;;;5169631;28;20956;-84
2021/08/07 10:46:36;;;;;;;;;;;23.40;72.30;;;;;;5180347;28;19925;-86
2021/08/07 10:49:11;;;;;;;;;;;23.40;72.30;;;;;;5181163;28;19929;-84
2021/08/07 10:51:43;;;;;;;;;;;23.40;72.20;;;;;;5199151;28;19930;-85
2021/08/07 10:54:42;;;;;;;;;;;23.40;72.20;;;;;;5183003;28;19936;-85
2021/08/07 10:57:31;;;;;;;;;;;23.40;72.10;;;;;;5163114;28;20388;-85
2021/08/07 11:00:13;;;;;;;;;;;23.40;72.10;;;;;;5196726;28;20311;-85
2021/08/07 11:02:45;;;;;;;;;;;23.50;72.20;;;;;;5186118;28;19928;-84
2021/08/07 11:05:18;;;;;;;;;;;23.50;72.20;;;;;;5182850;28;19955;-85
2021/08/07 11:08:11;;;;;;;;;;;23.50;72.10;;;;;;5181413;28;19933;-84
2021/08/07 11:10:43;;;;;;;;;;;23.50;72.20;;;;;;5201854;28;19925;-85
2021/08/07 11:13:23;;;;;;;;;;;23.50;72.20;;;;;;5179653;28;20432;-84
2021/08/07 11:16:14;;;;;;;;;;;23.50;72.20;;;;;;5174705;28;19929;-85
2021/08/07 11:18:48;;;;;;;;;;;23.50;72.20;;;;;;5179689;28;19936;-85
2021/08/07 11:21:39;;;;;;;;;;;23.50;72.20;;;;;;5182038;28;19937;-84
2021/08/07 11:24:31;;;;;;;;;;;23.50;72.10;;;;;;5180975;28;19940;-86
2021/08/07 11:27:03;;;;;;;;;;;23.50;72.10;;;;;;5160428;28;19929;-84
2021/08/07 11:29:55;;;;;;;;;;;23.50;72.10;;;;;;5181173;28;20092;-84
2021/08/07 11:32:27;;;;;;;;;;;23.50;72.10;;;;;;5167114;28;19925;-83
2021/08/07 11:34:59;;;;;;;;;;;23.50;72.10;;;;;;5183673;28;19940;-84
2021/08/07 11:37:32;;;;;;;;;;;23.50;72.10;;;;;;5183871;28;19947;-85
2021/08/07 11:40:08;;;;;;;;;;;23.50;72.10;;;;;;5168717;28;19929;-84
2021/08/07 11:42:45;;;;;;;;;;;23.50;72.10;;;;;;5192979;28;19953;-84
2021/08/07 11:45:19;;;;;;;;;;;23.50;72.10;;;;;;5184587;28;19934;-85
2021/08/07 11:47:52;;;;;;;;;;;23.50;72.10;;;;;;5188924;28;20391;-85
2021/08/07 11:50:25;;;;;;;;;;;23.50;72.10;;;;;;5182442;28;19929;-85
2021/08/07 11:52:58;;;;;;;;;;;23.60;72.10;;;;;;5179496;28;19926;-85
2021/08/07 11:55:34;;;;;;;;;;;23.60;72.10;;;;;;5180683;28;19933;-84
2021/08/07 11:58:07;;;;;;;;;;;23.50;72.00;;;;;;5182688;28;19933;-84
2021/08/07 12:00:39;;;;;;;;;;;23.60;72.00;;;;;;5153128;28;20298;-85
2021/08/07 12:03:12;;;;;;;;;;;23.60;72.00;;;;;;5178727;28;19932;-85
2021/08/07 12:05:49;;;;;;;;;;;23.60;72.00;;;;;;5175972;28;19936;-84
2021/08/07 12:08:23;;;;;;;;;;;23.60;71.90;;;;;;5181715;28;19940;-84
2021/08/07 12:10:57;;;;;;;;;;;23.60;72.00;;;;;;5181614;28;19934;-84
2021/08/07 12:13:30;;;;;;;;;;;23.60;71.90;;;;;;5180988;28;19963;-85
2021/08/07 12:16:08;;;;;;;;;;;23.60;71.90;;;;;;5195615;28;19929;-87
2021/08/07 12:18:40;;;;;;;;;;;23.70;72.00;;;;;;5173062;28;20327;-84
2021/08/07 12:21:14;;;;;;;;;;;23.70;72.00;;;;;;5180441;28;20299;-84
2021/08/07 12:23:47;;;;;;;;;;;23.70;72.00;;;;;;5181604;28;20390;-84
2021/08/07 12:26:20;;;;;;;;;;;23.70;71.90;;;;;;5197791;28;20489;-84
2021/08/07 12:29:15;;;;;;;;;;;23.70;71.90;;;;;;5183384;28;19949;-84
2021/08/07 12:31:49;;;;;;;;;;;23.70;72.00;;;;;;5155226;28;19930;-84
2021/08/07 12:34:27;;;;;;;;;;;23.70;71.90;;;;;;5164241;28;19944;-85
2021/08/07 12:37:06;;;;;;;;;;;23.70;71.90;;;;;;5164135;28;19940;-84
2021/08/07 12:39:40;;;;;;;;;;;23.70;71.90;;;;;;5158682;28;19929;-84
2021/08/07 12:42:13;;;;;;;;;;;23.70;71.90;;;;;;5178743;28;19937;-84
2021/08/07 12:45:09;;;;;;;;;;;23.70;71.90;;;;;;5183049;28;20383;-85
2021/08/07 12:47:42;;;;;;;;;;;23.70;71.90;;;;;;5167596;28;20454;-85
2021/08/07 12:50:15;;;;;;;;;;;23.80;71.90;;;;;;5179456;28;19937;-84
2021/08/07 12:52:52;;;;;;;;;;;23.80;71.90;;;;;;5180867;28;19929;-85
2021/08/07 12:55:25;;;;;;;;;;;23.80;71.90;;;;;;5148925;28;19929;-85
2021/08/07 12:58:10;;;;;;;;;;;23.80;71.90;;;;;;5186442;28;20502;-84
2021/08/07 13:00:42;;;;;;;;;;;23.80;71.90;;;;;;5150015;28;19940;-85
2021/08/07 13:03:15;;;;;;;;;;;23.80;71.80;;;;;;5178636;28;20323;-86
2021/08/07 13:05:47;;;;;;;;;;;23.80;71.80;;;;;;5179295;28;20411;-84
2021/08/07 13:08:23;;;;;;;;;;;23.80;71.80;;;;;;5154004;28;20306;-84
2021/08/07 13:11:11;;;;;;;;;;;23.80;71.80;;;;;;5178391;28;19945;-84
2021/08/07 13:13:45;;;;;;;;;;;23.80;71.80;;;;;;5181021;28;19929;-85
2021/08/07 13:16:36;;;;;;;;;;;23.80;71.80;;;;;;5164792;28;19929;-84
2021/08/07 13:19:27;;;;;;;;;;;23.80;71.80;;;;;;5187267;28;20052;-85
2021/08/07 13:22:10;;;;;;;;;;;23.80;71.80;;;;;;5185117;28;19925;-84
2021/08/07 13:24:49;;;;;;;;;;;23.80;71.80;;;;;;5175296;28;20310;-84
2021/08/07 13:27:42;;;;;;;;;;;23.90;71.90;;;;;;5183365;28;19925;-84
2021/08/07 13:30:16;;;;;;;;;;;23.90;71.90;;;;;;5189524;28;19929;-84
2021/08/07 13:33:01;;;;;;;;;;;23.90;71.90;;;;;;5181582;28;19926;-84
2021/08/07 13:35:34;;;;;;;;;;;23.80;71.80;;;;;;5189529;28;19926;-84
2021/08/07 13:38:06;;;;;;;;;;;23.90;71.90;;;;;;5188618;28;19925;-85
2021/08/07 13:40:38;;;;;;;;;;;23.80;71.90;;;;;;5189400;28;19933;-84
2021/08/07 13:43:11;;;;;;;;;;;23.90;71.90;;;;;;5185855;28;19930;-85
2021/08/07 13:45:44;;;;;;;;;;;23.90;71.90;;;;;;5187882;28;19933;-85
2021/08/07 13:48:19;;;;;;;;;;;23.80;71.90;;;;;;5187231;28;19929;-84
2021/08/07 13:50:51;;;;;;;;;;;23.90;72.00;;;;;;5189426;28;20270;-84
2021/08/07 13:53:24;;;;;;;;;;;23.90;72.00;;;;;;5185210;28;19925;-85
2021/08/07 13:55:56;;;;;;;;;;;23.90;72.00;;;;;;5172449;28;19921;-85
2021/08/07 13:58:29;;;;;;;;;;;23.90;72.00;;;;;;5189966;28;19929;-85
2021/08/07 14:01:01;;;;;;;;;;;23.90;72.00;;;;;;5190321;28;19925;-84
2021/08/07 14:03:34;;;;;;;;;;;23.90;72.00;;;;;;5168037;28;19925;-85
2021/08/07 14:06:08;;;;;;;;;;;23.90;72.00;;;;;;5152567;28;19994;-84
2021/08/07 14:08:41;;;;;;;;;;;23.90;72.00;;;;;;5188649;28;19940;-85
2021/08/07 14:11:13;;;;;;;;;;;23.90;72.00;;;;;;5169289;28;19934;-86
2021/08/07 14:13:46;;;;;;;;;;;23.90;72.60;;;;;;5172723;28;19925;-84
2021/08/07 14:16:18;;;;;;;;;;;23.90;72.00;;;;;;5186813;28;20414;-86
2021/08/07 14:18:51;;;;;;;;;;;23.90;72.00;;;;;;5174343;28;19933;-83
2021/08/07 14:21:23;;;;;;;;;;;23.90;72.00;;;;;;5188238;28;19937;-85
2021/08/07 14:23:55;;;;;;;;;;;23.90;72.00;;;;;;5184485;28;19934;-85
2021/08/07 14:26:28;;;;;;;;;;;23.90;72.00;;;;;;5148126;28;19983;-83
2021/08/07 14:29:01;;;;;;;;;;;23.90;72.00;;;;;;5190171;28;19929;-83
2021/08/07 14:31:34;;;;;;;;;;;23.90;72.00;;;;;;5184564;28;19926;-84
2021/08/07 14:34:08;;;;;;;;;;;23.90;72.00;;;;;;5172847;28;19925;-84
2021/08/07 14:36:43;;;;;;;;;;;23.90;72.00;;;;;;5156005;28;19934;-84
2021/08/07 14:39:15;;;;;;;;;;;23.90;72.00;;;;;;5190359;28;19938;-84
2021/08/07 14:41:48;;;;;;;;;;;23.90;72.10;;;;;;5157234;28;19940;-84
2021/08/07 14:44:21;;;;;;;;;;;23.90;72.10;;;;;;5191186;28;19934;-84
2021/08/07 14:46:53;;;;;;;;;;;23.90;72.10;;;;;;5168752;28;19937;-84
2021/08/07 14:49:25;;;;;;;;;;;23.90;72.20;;;;;;5185859;28;19933;-84
2021/08/07 14:51:58;;;;;;;;;;;23.90;72.20;;;;;;5190339;28;19936;-85
2021/08/07 14:54:33;;;;;;;;;;;23.90;72.20;;;;;;5173964;28;19929;-85
2021/08/07 14:57:05;;;;;;;;;;;23.80;72.10;;;;;;5192420;28;19926;-85
2021/08/07 14:59:38;;;;;;;;;;;23.90;72.20;;;;;;5189641;28;20375;-85
2021/08/07 15:02:10;;;;;;;;;;;23.80;72.20;;;;;;5175887;28;19929;-85
2021/08/07 15:04:42;;;;;;;;;;;23.80;72.20;;;;;;5188772;28;19932;-85